Time;durP1;ratioP1;P1;durP2;ratioP2;P2;SDS_P1;SDS_P2;PMS_P1;PMS_P2;Temp;Humidity;BMP_temperature;BMP_pressure;BME280_temperature;BME280_humidity;BME280_pressure;Samples;Min_cycle;Max_cycle;Signal;HPM_P1;HPM_P2
2023/12/19 00:00:05;;;;;;;27.38;16.80;;;;;;;3.67;81.75;99709.28;5009471;28;20109;-81
2023/12/19 00:02:30;;;;;;;26.58;15.02;;;;;;;3.40;81.71;99686.19;4995114;28;20088;-81
2023/12/19 00:04:56;;;;;;;25.38;15.02;;;;;;;3.49;81.82;99697.47;5014439;28;20037;-81
2023/12/19 00:07:21;;;;;;;25.33;15.82;;;;;;;3.49;82.26;99702.75;5014909;28;20034;-81
2023/12/19 00:09:46;;;;;;;26.40;15.80;;;;;;;3.55;81.57;99696.72;4994734;28;20034;-81
2023/12/19 00:12:12;;;;;;;25.90;15.73;;;;;;;3.54;81.53;99690.63;5006324;28;20107;-81
2023/12/19 00:14:38;;;;;;;29.40;17.45;;;;;;;3.16;82.00;99664.50;5004832;28;20555;-81
2023/12/19 00:17:04;;;;;;;26.10;16.02;;;;;;;3.31;81.52;99683.81;4988885;28;20026;-81
2023/12/19 00:19:29;;;;;;;26.40;16.25;;;;;;;3.36;82.75;99692.81;5009247;28;20485;-81
2023/12/19 00:21:56;;;;;;;23.33;15.75;;;;;;;3.46;82.44;99692.53;5015844;28;20029;-81
2023/12/19 00:24:21;;;;;;;26.52;17.00;;;;;;;3.10;82.92;99662.59;5010960;28;20049;-81
2023/12/19 00:26:46;;;;;;;26.80;15.75;;;;;;;3.21;83.70;99662.94;4980568;28;20129;-81
2023/12/19 00:29:12;;;;;;;25.55;15.38;;;;;;;3.59;82.26;99666.31;4986100;28;20026;-81
2023/12/19 00:31:37;;;;;;;25.75;15.23;;;;;;;3.72;81.72;99674.41;5009610;28;20037;-81
2023/12/19 00:34:02;;;;;;;32.00;19.13;;;;;;;3.56;82.19;99678.06;4976772;28;20025;-81
2023/12/19 00:36:28;;;;;;;24.45;15.93;;;;;;;3.57;81.74;99677.06;5006602;28;20571;-81
2023/12/19 00:38:54;;;;;;;30.30;18.17;;;;;;;3.30;81.98;99667.16;5013754;28;20041;-81
2023/12/19 00:41:20;;;;;;;31.67;18.85;;;;;;;3.44;82.44;99665.50;5011539;28;20489;-81
2023/12/19 00:43:46;;;;;;;29.50;18.10;;;;;;;3.34;82.87;99652.59;4977536;28;20180;-81
2023/12/19 00:46:11;;;;;;;28.33;17.30;;;;;;;3.34;83.58;99649.94;5008337;28;20467;-81
2023/12/19 00:48:37;;;;;;;31.45;17.85;;;;;;;3.44;82.23;99652.31;5012099;28;20038;-81
2023/12/19 00:51:08;;;;;;;31.70;18.38;;;;;;;3.27;83.51;99648.22;5018176;28;20049;-81
2023/12/19 00:53:33;;;;;;;31.58;18.88;;;;;;;3.25;83.10;99647.59;5013476;28;20363;-81
2023/12/19 00:55:59;;;;;;;35.42;19.65;;;;;;;3.23;82.85;99637.25;4993541;28;20034;-81
2023/12/19 00:58:24;;;;;;;30.85;18.45;;;;;;;3.33;83.66;99644.84;5012267;28;20105;-81
2023/12/19 01:00:49;;;;;;;31.67;17.80;;;;;;;3.36;83.18;99620.75;5009320;28;20401;-81
2023/12/19 01:03:15;;;;;;;31.25;18.67;;;;;;;3.55;83.86;99641.31;5009924;28;20069;-81
2023/12/19 01:05:40;;;;;;;32.53;19.67;;;;;;;3.48;83.06;99653.59;4999971;28;20033;-81
2023/12/19 01:08:06;;;;;;;34.20;20.45;;;;;;;3.60;82.60;99673.25;5020427;28;20048;-81
2023/12/19 01:10:31;;;;;;;33.13;18.40;;;;;;;3.76;82.44;99678.31;5018478;28;20029;-82
2023/12/19 01:12:56;;;;;;;27.70;17.38;;;;;;;3.85;82.56;99682.47;5022993;28;20533;-81
2023/12/19 01:15:22;;;;;;;25.20;16.30;;;;;;;3.84;82.26;99667.66;5009389;28;20489;-81
2023/12/19 01:17:47;;;;;;;26.77;16.38;;;;;;;3.76;83.00;99657.19;5017000;28;20113;-82
2023/12/19 01:20:13;;;;;;;26.63;16.95;;;;;;;3.71;82.74;99633.19;4995936;28;20477;-81
2023/12/19 01:22:38;;;;;;;31.42;17.35;;;;;;;3.53;82.19;99625.66;5011730;28;20125;-81
2023/12/19 01:25:04;;;;;;;29.00;18.50;;;;;;;3.61;82.75;99632.63;5001719;28;20041;-81
2023/12/19 01:27:29;;;;;;;29.63;17.60;;;;;;;3.72;83.03;99629.53;4999551;28;20545;-81
2023/12/19 01:29:54;;;;;;;25.63;16.55;;;;;;;3.80;82.19;99637.31;4993030;28;20033;-81
2023/12/19 01:32:20;;;;;;;29.23;18.10;;;;;;;3.84;82.49;99638.63;5012577;28;20073;-81
2023/12/19 01:34:46;;;;;;;28.08;17.75;;;;;;;3.70;82.01;99616.53;4991317;28;20030;-81
2023/12/19 01:37:12;;;;;;;25.77;15.85;;;;;;;3.84;82.25;99619.31;5001265;28;20025;-81
2023/12/19 01:39:38;;;;;;;26.73;16.67;;;;;;;3.78;81.79;99611.13;5023529;28;20090;-81
2023/12/19 01:42:03;;;;;;;26.60;15.27;;;;;;;3.94;82.27;99644.41;5022359;28;20056;-81
2023/12/19 01:44:28;;;;;;;26.58;15.00;;;;;;;3.87;81.45;99655.91;5012785;28;20967;-81
2023/12/19 01:46:54;;;;;;;28.45;17.20;;;;;;;3.82;82.13;99650.38;4994204;28;20026;-81
2023/12/19 01:49:19;;;;;;;28.80;15.38;;;;;;;3.87;81.85;99659.34;4992342;28;20058;-81
2023/12/19 01:51:45;;;;;;;29.23;17.50;;;;;;;3.84;81.71;99651.81;4988820;28;20383;-81
2023/12/19 01:54:12;;;;;;;28.50;16.88;;;;;;;4.10;81.49;99675.06;5013221;28;20358;-81
2023/12/19 01:56:38;;;;;;;27.25;15.77;;;;;;;4.05;81.18;99674.78;4999956;28;20120;-81
2023/12/19 01:59:07;;;;;;;28.17;16.48;;;;;;;3.71;81.78;99670.16;4976825;28;20133;-82
2023/12/19 02:01:36;;;;;;;27.02;16.08;;;;;;;4.07;81.81;99683.34;5009164;28;20128;-82
2023/12/19 02:04:02;;;;;;;27.50;15.75;;;;;;;3.68;81.28;99659.94;4991526;28;20038;-81
2023/12/19 02:06:28;;;;;;;25.02;16.42;;;;;;;3.67;81.82;99643.28;5015414;28;20462;-81
2023/12/19 02:08:54;;;;;;;24.50;15.07;;;;;;;3.76;82.45;99651.91;5022174;28;20096;-81
2023/12/19 02:11:19;;;;;;;23.52;15.90;;;;;;;3.73;82.12;99652.28;5009120;28;20094;-81
2023/12/19 02:13:45;;;;;;;28.52;16.60;;;;;;;3.58;82.30;99627.75;5010769;28;20041;-81
2023/12/19 02:16:10;;;;;;;23.15;14.10;;;;;;;3.98;82.29;99643.03;5015042;28;20025;-81
2023/12/19 02:18:36;;;;;;;27.45;16.80;;;;;;;4.01;81.63;99634.75;5014939;28;20053;-82
2023/12/19 02:21:04;;;;;;;23.85;15.15;;;;;;;3.89;82.02;99630.16;4999738;28;20029;-81
2023/12/19 02:23:29;;;;;;;26.70;15.15;;;;;;;4.03;81.84;99635.38;4996649;28;20038;-81
2023/12/19 02:25:55;;;;;;;26.52;15.27;;;;;;;3.90;82.27;99615.91;4993977;28;20612;-81
2023/12/19 02:28:20;;;;;;;26.48;16.52;;;;;;;3.89;81.62;99593.97;5012037;28;20072;-81
2023/12/19 02:30:46;;;;;;;29.50;15.93;;;;;;;3.70;82.21;99597.22;5009536;28;20069;-81
2023/12/19 02:33:12;;;;;;;26.92;16.15;;;;;;;3.75;82.50;99593.03;4998723;28;20033;-81
2023/12/19 02:35:37;;;;;;;26.33;16.45;;;;;;;3.95;81.84;99602.97;4994410;28;20033;-81
2023/12/19 02:38:03;;;;;;;28.55;16.42;;;;;;;3.62;81.86;99598.16;4999492;28;20037;-81
2023/12/19 02:40:29;;;;;;;27.88;16.05;;;;;;;3.79;82.75;99607.50;4992412;28;20050;-81
2023/12/19 02:42:54;;;;;;;24.95;16.00;;;;;;;3.82;83.15;99587.81;4990819;28;20038;-81
2023/12/19 02:45:19;;;;;;;25.70;16.45;;;;;;;4.01;83.08;99599.59;4998058;28;20569;-81
2023/12/19 02:47:45;;;;;;;22.63;15.18;;;;;;;4.01;82.60;99592.47;5013721;28;20408;-81
2023/12/19 02:50:10;;;;;;;26.70;16.17;;;;;;;4.23;81.66;99599.41;5009471;28;20121;-81
2023/12/19 02:52:36;;;;;;;25.65;14.57;;;;;;;4.17;81.91;99583.50;5009566;28;20501;-80
2023/12/19 02:55:01;;;;;;;22.92;15.68;;;;;;;4.04;81.84;99588.66;5008782;28;20034;-81
2023/12/19 02:57:26;;;;;;;26.88;16.33;;;;;;;4.14;82.56;99568.84;5012676;28;20110;-81
2023/12/19 02:59:52;;;;;;;24.55;16.17;;;;;;;4.03;81.83;99569.34;5010827;28;20034;-82
2023/12/19 03:02:17;;;;;;;25.48;15.63;;;;;;;4.00;82.29;99569.72;4994568;28;20034;-81
2023/12/19 03:04:42;;;;;;;24.30;15.80;;;;;;;4.05;82.51;99555.94;5011696;28;20034;-81
2023/12/19 03:07:09;;;;;;;24.13;16.80;;;;;;;4.01;82.21;99544.13;5002026;28;20033;-82
2023/12/19 03:09:35;;;;;;;28.85;15.68;;;;;;;3.83;82.77;99547.19;5005833;28;20377;-81
2023/12/19 03:12:06;;;;;;;26.20;15.68;;;;;;;3.94;81.99;99525.56;5008401;28;20041;-81
2023/12/19 03:14:32;;;;;;;26.67;17.15;;;;;;;3.84;82.26;99526.91;5012040;28;20030;-81
2023/12/19 03:16:58;;;;;;;26.20;15.27;;;;;;;3.91;82.66;99536.50;5018102;28;20124;-81
2023/12/19 03:19:24;;;;;;;24.98;14.63;;;;;;;3.91;83.44;99518.03;5009249;28;20104;-81
2023/12/19 03:21:49;;;;;;;21.88;14.93;;;;;;;3.84;83.35;99506.59;5017406;28;20046;-81
2023/12/19 03:24:15;;;;;;;27.65;17.83;;;;;;;4.01;82.40;99521.19;5003844;28;20076;-81
2023/12/19 03:26:40;;;;;;;27.10;15.43;;;;;;;3.98;83.37;99523.34;5008254;28;20034;-82
2023/12/19 03:29:05;;;;;;;26.48;17.08;;;;;;;4.19;82.57;99526.81;4993431;28;20030;-81
2023/12/19 03:31:31;;;;;;;26.33;16.15;;;;;;;4.06;82.60;99515.31;4996013;28;20044;-81
2023/12/19 03:33:56;;;;;;;23.67;15.02;;;;;;;4.06;83.07;99513.50;4981702;28;20507;-81
2023/12/19 03:36:22;;;;;;;26.77;15.43;;;;;;;4.03;83.53;99523.63;5008228;28;20048;-81
2023/12/19 03:38:49;;;;;;;26.25;15.95;;;;;;;3.89;83.53;99504.19;5008116;28;20041;-81
2023/12/19 03:41:14;;;;;;;27.15;16.00;;;;;;;3.79;84.10;99503.69;5006503;28;20427;-81
2023/12/19 03:43:40;;;;;;;27.00;15.60;;;;;;;3.91;83.55;99475.78;5009009;28;20451;-81
2023/12/19 03:46:07;;;;;;;26.10;16.08;;;;;;;4.19;82.79;99486.38;5008388;28;20044;-81
2023/12/19 03:48:34;;;;;;;30.40;17.67;;;;;;;4.06;82.59;99484.47;5003925;28;20080;-81
2023/12/19 03:51:00;;;;;;;31.58;16.95;;;;;;;3.72;84.04;99474.59;5013316;28;20037;-81
2023/12/19 03:53:25;;;;;;;23.38;14.88;;;;;;;4.08;83.17;99471.88;5011356;28;20060;-81
2023/12/19 03:55:51;;;;;;;24.95;15.30;;;;;;;3.98;82.84;99470.53;4994751;28;20041;-81
2023/12/19 03:58:16;;;;;;;26.98;16.27;;;;;;;4.21;82.96;99485.19;5011129;28;20038;-81
2023/12/19 04:00:41;;;;;;;24.70;14.20;;;;;;;4.28;83.30;99482.59;5008518;28;20033;-81
2023/12/19 04:03:07;;;;;;;29.40;15.63;;;;;;;4.18;83.25;99451.22;4992741;28;20040;-81
2023/12/19 04:05:32;;;;;;;27.83;15.88;;;;;;;4.18;82.79;99482.09;4993070;28;20091;-81
2023/12/19 04:07:57;;;;;;;23.45;15.35;;;;;;;4.22;82.57;99492.09;5012769;28;20500;-81
2023/12/19 04:10:23;;;;;;;26.90;15.25;;;;;;;4.18;82.56;99492.66;5001896;28;20488;-82
2023/12/19 04:12:48;;;;;;;27.48;16.88;;;;;;;4.25;82.71;99478.50;4994838;28;20448;-81
2023/12/19 04:15:13;;;;;;;27.00;16.48;;;;;;;4.46;82.05;99499.56;4993440;28;20041;-81
2023/12/19 04:17:39;;;;;;;24.92;14.55;;;;;;;4.34;82.06;99482.63;5008109;28;20045;-81
2023/12/19 04:20:05;;;;;;;26.52;16.33;;;;;;;4.29;82.56;99494.78;5006835;28;20345;-81
2023/12/19 04:22:31;;;;;;;23.25;15.63;;;;;;;4.42;82.23;99494.88;4992290;28;20042;-81
2023/12/19 04:24:56;;;;;;;26.13;14.50;;;;;;;4.44;82.47;99498.94;4993952;28;20497;-81
2023/12/19 04:27:22;;;;;;;26.35;15.05;;;;;;;4.42;82.47;99494.88;5012820;28;20026;-82
2023/12/19 04:29:47;;;;;;;22.92;15.32;;;;;;;4.32;82.34;99479.38;4991417;28;20394;-82
2023/12/19 04:32:13;;;;;;;23.35;15.32;;;;;;;4.33;82.89;99465.13;5008426;28;20508;-81
2023/12/19 04:34:39;;;;;;;24.88;14.82;;;;;;;4.42;82.52;99477.19;5010600;28;20065;-81
2023/12/19 04:37:04;;;;;;;28.25;17.02;;;;;;;4.24;82.52;99490.06;5013190;28;20099;-82
2023/12/19 04:39:29;;;;;;;21.73;14.00;;;;;;;4.22;82.67;99463.03;5011179;28;20382;-82
2023/12/19 04:41:55;;;;;;;22.67;15.10;;;;;;;4.30;83.07;99472.63;5016644;28;20088;-80
2023/12/19 04:44:22;;;;;;;24.20;14.35;;;;;;;4.22;83.59;99470.13;5014376;28;20026;-81
2023/12/19 04:46:47;;;;;;;32.78;19.67;;;;;;;3.99;83.21;99443.16;5009311;28;20038;-81
2023/12/19 04:49:12;;;;;;;27.98;17.42;;;;;;;3.96;83.41;99436.41;5018322;28;20033;-81
2023/12/19 04:51:38;;;;;;;25.33;16.48;;;;;;;4.22;84.09;99449.00;5018596;28;20038;-81
2023/12/19 04:54:05;;;;;;;29.88;16.33;;;;;;;4.14;84.03;99454.44;5002307;28;20033;-81
2023/12/19 04:56:31;;;;;;;30.02;16.30;;;;;;;4.31;83.65;99469.78;4996747;28;20033;-81
2023/12/19 04:58:56;;;;;;;31.05;17.73;;;;;;;4.16;84.45;99447.94;5014110;28;20038;-81
2023/12/19 05:01:21;;;;;;;25.67;17.17;;;;;;;4.24;83.88;99446.97;5009490;28;20334;-81
2023/12/19 05:03:47;;;;;;;31.48;17.38;;;;;;;4.36;83.18;99454.19;4995326;28;20037;-82
2023/12/19 05:06:17;;;;;;;30.33;18.33;;;;;;;4.15;83.37;99459.50;5014446;28;20079;-81
2023/12/19 05:08:44;;;;;;;34.58;18.83;;;;;;;3.99;84.16;99414.09;4999858;28;20079;-81
2023/12/19 05:11:10;;;;;;;33.50;20.75;;;;;;;4.21;83.94;99447.38;4997617;28;20554;-81
2023/12/19 05:13:36;;;;;;;27.48;17.23;;;;;;;4.16;83.89;99441.84;5011819;28;20030;-81
2023/12/19 05:16:15;;;;;;;38.17;19.88;;;;;;;4.02;84.49;99433.00;5013164;28;20032;-81
2023/12/19 05:18:41;;;;;;;36.65;21.60;;;;;;;4.15;84.02;99451.59;5023164;28;20038;-81
2023/12/19 05:21:08;;;;;;;32.03;19.48;;;;;;;4.25;84.21;99445.97;4994487;28;20060;-82
2023/12/19 05:23:38;;;;;;;34.28;19.30;;;;;;;4.27;84.39;99418.34;5011695;28;20409;-81
2023/12/19 05:26:04;;;;;;;31.13;19.92;;;;;;;4.24;84.00;99423.19;5012573;28;20029;-81
2023/12/19 05:28:29;;;;;;;35.97;20.63;;;;;;;4.05;84.32;99427.34;5007649;28;20040;-81
2023/12/19 05:30:56;;;;;;;33.65;19.58;;;;;;;4.16;84.52;99413.59;5012615;28;20021;-81
2023/12/19 05:33:26;;;;;;;33.72;20.50;;;;;;;4.12;84.96;99422.09;4999786;28;20120;-81
2023/12/19 05:35:51;;;;;;;31.08;18.77;;;;;;;4.12;85.30;99399.16;5011009;28;20041;-81
2023/12/19 05:38:18;;;;;;;35.17;20.83;;;;;;;4.02;85.19;99382.81;4994695;28;20034;-81
2023/12/19 05:40:43;;;;;;;32.65;20.65;;;;;;;3.83;85.58;99386.16;5016086;28;20038;-81
2023/12/19 05:43:09;;;;;;;35.65;19.92;;;;;;;4.13;85.26;99402.63;5009964;28;20426;-81
2023/12/19 05:45:34;;;;;;;36.30;21.55;;;;;;;4.01;85.42;99389.13;5010883;28;20133;-81
2023/12/19 05:48:00;;;;;;;33.30;20.67;;;;;;;3.88;85.41;99386.41;4993345;28;20504;-81
2023/12/19 05:50:25;;;;;;;35.60;21.33;;;;;;;4.17;85.87;99393.28;5010667;28;20029;-81
2023/12/19 05:52:52;;;;;;;33.78;19.95;;;;;;;4.07;85.33;99385.72;5010832;28;20033;-82
2023/12/19 05:55:19;;;;;;;31.88;20.15;;;;;;;3.78;85.27;99370.88;5013604;28;20096;-80
2023/12/19 05:57:45;;;;;;;31.15;18.80;;;;;;;4.11;85.38;99379.03;5011350;28;20120;-82
2023/12/19 06:00:11;;;;;;;33.92;19.88;;;;;;;3.95;85.92;99379.34;5007836;28;20054;-81
2023/12/19 06:02:36;;;;;;;34.17;19.40;;;;;;;4.08;85.52;99384.72;5005343;28;20057;-81
2023/12/19 06:05:07;;;;;;;28.08;17.75;;;;;;;4.01;86.27;99386.50;5016938;28;20100;-81
2023/12/19 06:07:34;;;;;;;32.80;17.25;;;;;;;4.15;86.40;99388.19;4996404;28;20121;-81
2023/12/19 06:09:59;;;;;;;30.33;18.70;;;;;;;4.04;86.50;99393.22;4996684;28;20548;-81
2023/12/19 06:12:24;;;;;;;29.70;19.00;;;;;;;3.64;86.98;99360.44;5014753;28;20026;-81
2023/12/19 06:14:50;;;;;;;30.20;18.48;;;;;;;4.05;86.54;99378.97;5010840;28;20133;-81
2023/12/19 06:17:15;;;;;;;28.88;18.02;;;;;;;4.04;87.12;99374.72;5011646;28;20054;-82
2023/12/19 06:19:40;;;;;;;31.50;18.58;;;;;;;4.05;86.22;99353.41;4974395;28;20512;-82
2023/12/19 06:22:05;;;;;;;28.40;17.35;;;;;;;4.03;86.45;99347.50;5012591;28;20045;-81
2023/12/19 06:24:31;;;;;;;26.15;15.88;;;;;;;3.77;87.91;99342.03;5012776;28;20029;-81
2023/12/19 06:26:56;;;;;;;26.23;15.60;;;;;;;3.95;87.09;99336.28;4996055;28;20034;-81
2023/12/19 06:29:22;;;;;;;24.50;15.40;;;;;;;3.90;86.97;99334.22;5010563;28;20058;-81
2023/12/19 06:31:47;;;;;;;25.35;15.35;;;;;;;3.81;87.49;99330.09;4975790;28;20030;-81
2023/12/19 06:34:12;;;;;;;30.02;16.55;;;;;;;3.92;87.43;99328.72;5012284;28;20034;-81
2023/12/19 06:36:40;;;;;;;29.67;17.40;;;;;;;4.09;87.23;99322.94;4973699;28;20177;-81
2023/12/19 06:39:06;;;;;;;24.85;15.75;;;;;;;3.93;86.41;99291.59;4979698;28;20063;-81
2023/12/19 06:41:31;;;;;;;30.88;17.70;;;;;;;3.97;86.79;99289.34;5009586;28;20028;-82
2023/12/19 06:43:57;;;;;;;28.23;17.30;;;;;;;4.09;86.67;99308.91;4990032;28;20450;-81
2023/12/19 06:46:22;;;;;;;28.15;17.38;;;;;;;4.02;86.67;99306.22;5011246;28;20118;-81
2023/12/19 06:48:47;;;;;;;30.27;17.63;;;;;;;3.82;86.56;99286.84;5010875;28;20173;-81
2023/12/19 06:51:26;;;;;;;28.02;16.15;;;;;;;3.89;87.18;99281.59;4993405;28;20030;-81
2023/12/19 06:53:54;;;;;;;30.95;17.52;;;;;;;3.90;87.70;99299.06;5011131;28;20033;-81
2023/12/19 06:56:20;;;;;;;27.83;17.83;;;;;;;4.06;87.31;99299.56;5012021;28;20041;-82
2023/12/19 06:58:45;;;;;;;29.88;18.13;;;;;;;4.00;86.85;99267.84;5008146;28;20381;-81
2023/12/19 07:01:11;;;;;;;30.70;17.95;;;;;;;4.08;86.61;99294.91;5012092;28;20117;-81
2023/12/19 07:03:36;;;;;;;26.33;16.95;;;;;;;4.01;86.74;99286.13;5013146;28;20064;-82
2023/12/19 07:06:02;;;;;;;30.80;18.02;;;;;;;4.10;87.46;99289.44;4994638;28;20034;-81
2023/12/19 07:08:32;;;;;;;29.73;18.63;;;;;;;4.20;86.95;99303.06;5002366;28;20554;-81
2023/12/19 07:10:57;;;;;;;28.92;15.65;;;;;;;4.11;86.68;99296.31;5015219;28;20033;-81
2023/12/19 07:13:23;;;;;;;25.10;16.92;;;;;;;4.18;86.80;99307.75;5011722;28;20032;-81
2023/12/19 07:15:48;;;;;;;27.88;16.50;;;;;;;4.07;87.49;99287.16;5011252;28;20041;-81
2023/12/19 07:18:13;;;;;;;28.23;16.38;;;;;;;4.21;86.87;99307.34;5010743;28;20071;-81
2023/12/19 07:20:39;;;;;;;23.63;14.77;;;;;;;4.13;86.35;99313.59;5006691;28;20045;-81
2023/12/19 07:23:04;;;;;;;25.70;15.95;;;;;;;3.98;87.37;99296.25;4975004;28;20453;-81
2023/12/19 07:25:30;;;;;;;22.08;15.05;;;;;;;4.03;87.47;99314.97;4995388;28;20041;-81
2023/12/19 07:27:56;;;;;;;24.75;15.80;;;;;;;3.97;87.18;99319.22;4988270;28;20101;-81
2023/12/19 07:30:21;;;;;;;24.58;14.85;;;;;;;3.90;87.55;99336.03;5004127;28;20029;-82
2023/12/19 07:32:50;;;;;;;23.50;12.00;;;;;;;3.91;87.92;99330.53;5008065;28;20481;-81
2023/12/19 07:35:16;;;;;;;22.80;14.35;;;;;;;3.92;87.65;99326.91;4993707;28;20026;-81
2023/12/19 07:37:42;;;;;;;23.33;14.05;;;;;;;4.01;87.73;99336.31;4972702;28;20045;-81
2023/12/19 07:40:10;;;;;;;22.17;13.43;;;;;;;3.95;87.57;99337.09;5005262;28;20030;-81
2023/12/19 07:42:35;;;;;;;24.38;15.13;;;;;;;4.08;87.33;99334.53;5007389;28;20044;-81
2023/12/19 07:45:02;;;;;;;29.80;16.42;;;;;;;4.00;86.98;99318.81;4991377;28;20034;-82
2023/12/19 07:47:28;;;;;;;22.98;14.55;;;;;;;4.03;88.22;99336.09;4989986;28;20494;-81
2023/12/19 07:49:53;;;;;;;26.73;16.25;;;;;;;3.88;87.89;99315.09;5010580;28;20056;-81
2023/12/19 07:52:19;;;;;;;24.85;13.32;;;;;;;3.96;87.32;99311.47;5010408;28;20413;-81
2023/12/19 07:54:44;;;;;;;21.13;14.18;;;;;;;3.85;87.67;99304.91;5008623;28;20022;-81
2023/12/19 07:57:09;;;;;;;23.10;15.52;;;;;;;4.19;87.15;99328.69;5006930;28;20084;-81
2023/12/19 07:59:35;;;;;;;22.52;14.80;;;;;;;4.24;86.42;99305.13;5002640;28;20119;-81
2023/12/19 08:02:00;;;;;;;21.02;14.68;;;;;;;4.02;87.38;99285.09;5008695;28;20065;-81
2023/12/19 08:04:26;;;;;;;27.60;16.20;;;;;;;4.01;87.27;99278.22;5007603;28;20759;-81
2023/12/19 08:06:51;;;;;;;25.90;15.13;;;;;;;4.28;86.58;99276.50;5007196;28;20030;-81
2023/12/19 08:09:16;;;;;;;24.60;14.93;;;;;;;4.24;86.22;99291.09;4994144;28;20494;-81
2023/12/19 08:11:42;;;;;;;24.08;16.70;;;;;;;4.11;86.48;99281.28;5008645;28;20440;-81
2023/12/19 08:14:07;;;;;;;23.40;14.88;;;;;;;4.22;86.70;99274.63;5004900;28;20034;-81
2023/12/19 08:16:33;;;;;;;26.00;16.95;;;;;;;4.24;86.77;99286.63;5006653;28;20569;-81
2023/12/19 08:18:58;;;;;;;26.15;15.25;;;;;;;4.32;86.28;99283.03;5008249;28;20033;-81
2023/12/19 08:21:25;;;;;;;23.38;14.38;;;;;;;4.23;86.14;99274.44;5001427;28;20050;-81
2023/12/19 08:23:51;;;;;;;21.25;14.32;;;;;;;4.24;86.14;99262.03;5004096;28;20037;-82
2023/12/19 08:26:17;;;;;;;22.40;14.80;;;;;;;4.32;85.98;99264.53;4987506;28;20026;-81
2023/12/19 08:28:43;;;;;;;23.30;14.80;;;;;;;4.21;86.69;99247.41;4988010;28;20057;-82
2023/12/19 08:31:08;;;;;;;26.30;14.82;;;;;;;4.22;86.41;99249.03;5009436;28;20030;-81
2023/12/19 08:33:33;;;;;;;23.63;14.60;;;;;;;4.16;86.13;99251.66;5009790;28;20075;-81
2023/12/19 08:35:59;;;;;;;23.45;14.13;;;;;;;4.28;86.70;99258.00;5008672;28;20034;-81
2023/12/19 08:38:24;;;;;;;21.83;13.25;;;;;;;4.24;87.46;99254.94;5008683;28;20505;-81
2023/12/19 08:40:50;;;;;;;16.98;12.32;;;;;;;4.18;87.41;99258.38;5006909;28;20036;-81
2023/12/19 08:43:19;;;;;;;21.17;13.73;;;;;;;4.27;87.49;99243.97;5009112;28;20101;-81
2023/12/19 08:45:45;;;;;;;24.30;14.45;;;;;;;4.14;88.21;99261.59;5009329;28;20552;-82
2023/12/19 08:48:12;;;;;;;18.40;12.93;;;;;;;4.15;87.71;99228.91;4994176;28;20030;-82
2023/12/19 08:50:37;;;;;;;18.88;13.63;;;;;;;4.28;87.38;99242.94;5011429;28;20405;-81
2023/12/19 08:53:03;;;;;;;21.92;14.15;;;;;;;4.38;87.33;99253.16;5011092;28;20030;-82
2023/12/19 08:55:30;;;;;;;19.35;13.32;;;;;;;4.43;86.99;99261.31;5009265;28;20045;-81
2023/12/19 08:57:55;;;;;;;24.27;15.85;;;;;;;4.49;87.28;99263.97;4993343;28;20081;-82
2023/12/19 09:00:22;;;;;;;23.05;14.77;;;;;;;4.54;87.25;99277.38;5006365;28;20026;-82
2023/12/19 09:02:48;;;;;;;22.75;17.10;;;;;;;4.21;88.39;99236.03;5007379;28;20034;-82
2023/12/19 09:05:18;;;;;;;22.98;15.40;;;;;;;4.32;87.73;99240.75;5009628;28;20489;-81
2023/12/19 09:07:48;;;;;;;23.95;14.38;;;;;;;4.51;87.10;99245.25;4985718;28;20037;-81
2023/12/19 09:10:14;;;;;;;19.10;13.35;;;;;;;4.42;87.93;99236.72;5006497;28;20104;-81
2023/12/19 09:12:43;;;;;;;18.58;12.10;;;;;;;4.16;88.89;99236.63;5007175;28;20030;-82
2023/12/19 09:15:10;;;;;;;18.92;12.73;;;;;;;4.44;88.58;99234.69;4991496;28;20510;-81
2023/12/19 09:17:35;;;;;;;17.80;12.23;;;;;;;4.45;87.74;99233.69;5007496;28;20679;-82
2023/12/19 09:20:05;;;;;;;17.52;11.85;;;;;;;4.45;87.91;99228.38;5012560;28;20030;-82
2023/12/19 09:22:31;;;;;;;14.77;10.18;;;;;;;4.37;88.45;99223.28;5008395;28;20049;-81
2023/12/19 09:24:56;;;;;;;16.48;11.20;;;;;;;4.34;88.38;99215.75;5015008;28;20492;-82
2023/12/19 09:27:22;;;;;;;17.88;11.70;;;;;;;4.36;88.11;99199.69;5014430;28;20030;-82
2023/12/19 09:29:48;;;;;;;17.85;10.63;;;;;;;4.42;88.44;99218.22;5013833;28;20030;-82
2023/12/19 09:32:15;;;;;;;16.02;10.75;;;;;;;4.43;88.41;99208.47;5005544;28;20548;-82
2023/12/19 09:34:40;;;;;;;15.20;10.32;;;;;;;4.39;89.35;99205.38;4994540;28;20077;-81
2023/12/19 09:37:06;;;;;;;14.80;10.27;;;;;;;4.31;88.66;99180.97;4997398;28;20197;-82
2023/12/19 09:39:32;;;;;;;13.60;9.25;;;;;;;4.42;88.81;99198.88;4994695;28;20031;-81
2023/12/19 09:41:58;;;;;;;12.85;8.65;;;;;;;4.28;89.37;99182.19;5006938;28;20041;-82
2023/12/19 09:44:25;;;;;;;13.35;8.80;;;;;;;4.39;89.06;99204.59;4992935;28;20030;-82
2023/12/19 09:46:52;;;;;;;13.30;8.77;;;;;;;4.25;89.26;99182.59;5012902;28;20501;-82
2023/12/19 09:49:25;;;;;;;13.98;7.93;;;;;;;4.25;88.75;99192.34;5010431;28;20354;-81
2023/12/19 09:51:53;;;;;;;13.80;9.27;;;;;;;4.30;88.87;99190.72;4997447;28;20026;-82
2023/12/19 09:54:20;;;;;;;13.93;8.40;;;;;;;4.39;89.22;99188.75;4997371;28;20042;-81
2023/12/19 09:56:46;;;;;;;12.60;7.68;;;;;;;4.23;88.77;99182.00;5012735;28;20516;-81
2023/12/19 09:59:14;;;;;;;14.60;9.52;;;;;;;4.39;87.93;99173.66;5013580;28;20034;-81
2023/12/19 10:01:40;;;;;;;11.45;8.65;;;;;;;4.34;88.93;99154.16;5012150;28;20069;-81
2023/12/19 10:04:13;;;;;;;12.63;8.85;;;;;;;4.41;88.35;99176.94;5012466;28;20064;-81
2023/12/19 10:06:39;;;;;;;15.73;10.38;;;;;;;4.35;89.52;99179.56;5010717;28;20037;-81
2023/12/19 10:09:05;;;;;;;15.75;9.43;;;;;;;4.39;88.87;99188.75;5014080;28;20092;-82
2023/12/19 10:11:30;;;;;;;15.18;10.50;;;;;;;4.39;89.16;99181.59;5011474;28;20138;-81
2023/12/19 10:14:09;;;;;;;12.80;8.85;;;;;;;4.24;89.03;99153.72;4990107;28;20056;-82
2023/12/19 10:16:38;;;;;;;12.63;8.55;;;;;;;4.34;88.44;99155.00;5013200;28;20025;-82
2023/12/19 10:19:03;;;;;;;14.88;9.27;;;;;;;4.34;88.85;99160.28;5013062;28;20033;-82
2023/12/19 10:21:28;;;;;;;12.40;8.45;;;;;;;4.10;89.10;99134.41;5011658;28;20034;-81
2023/12/19 10:24:06;;;;;;;14.18;9.63;;;;;;;4.28;89.01;99145.19;5010941;28;20041;-82
2023/12/19 10:26:33;;;;;;;14.45;8.43;;;;;;;4.27;88.76;99137.47;5012722;28;20026;-82
2023/12/19 10:28:59;;;;;;;13.55;9.52;;;;;;;4.16;88.96;99112.47;4997200;28;20188;-81
2023/12/19 10:31:24;;;;;;;14.20;9.68;;;;;;;4.17;89.92;99105.38;4994769;28;20112;-82
2023/12/19 10:33:51;;;;;;;12.98;8.68;;;;;;;4.31;89.54;99117.56;5009197;28;20536;-82
2023/12/19 10:36:26;;;;;;;10.82;8.77;;;;;;;4.39;89.42;99109.47;5013542;28;20047;-81
2023/12/19 10:38:57;;;;;;;13.25;8.77;;;;;;;4.39;88.61;99099.69;5011161;28;20099;-81
2023/12/19 10:41:27;;;;;;;11.52;8.20;;;;;;;4.38;89.02;99095.44;5013060;28;20497;-81
2023/12/19 10:43:56;;;;;;;12.73;8.68;;;;;;;4.41;88.89;99091.56;5008991;28;20148;-81
2023/12/19 10:46:25;;;;;;;13.32;8.27;;;;;;;4.33;88.69;99087.28;4991338;28;20025;-81
2023/12/19 10:48:57;;;;;;;11.50;7.68;;;;;;;4.38;88.50;99106.00;5013973;28;20117;-82
2023/12/19 10:51:33;;;;;;;11.50;7.47;;;;;;;4.22;88.74;99077.31;5012104;28;20436;-82
2023/12/19 10:54:10;;;;;;;10.65;7.28;;;;;;;4.19;89.09;99083.03;5012729;28;20026;-82
2023/12/19 10:56:49;;;;;;;9.85;7.13;;;;;;;4.12;88.91;99061.06;5011996;28;20034;-82
2023/12/19 10:59:27;;;;;;;12.23;7.65;;;;;;;4.13;89.42;99053.97;5011055;28;20061;-81
2023/12/19 11:01:56;;;;;;;10.98;6.82;;;;;;;4.12;89.43;99036.47;5010078;28;20032;-82
2023/12/19 11:04:23;;;;;;;10.40;6.85;;;;;;;4.18;89.35;99070.00;5010981;28;20017;-82
2023/12/19 11:06:54;;;;;;;9.00;6.50;;;;;;;4.21;89.40;99070.44;4993567;28;20034;-82
2023/12/19 11:09:24;;;;;;;10.18;6.35;;;;;;;4.29;88.63;99074.69;5011437;28;20538;-82
2023/12/19 11:11:51;;;;;;;8.93;6.20;;;;;;;4.17;88.58;99048.06;4995467;28;20057;-81
2023/12/19 11:14:22;;;;;;;9.90;6.13;;;;;;;4.38;88.08;99061.09;5012973;28;20037;-82
2023/12/19 11:16:56;;;;;;;10.23;7.00;;;;;;;4.31;88.19;99043.59;4992816;28;20074;-81
2023/12/19 11:19:27;;;;;;;10.40;6.60;;;;;;;4.31;88.76;99049.69;5009578;28;20036;-81
2023/12/19 11:22:21;;;;;;;7.95;7.03;;;;;;;4.33;88.45;99039.72;5010985;28;20041;-81